CPX718 Details

Departure: Juan Santamar?a International Airport (MROC)
Arrival: Miami International Airport (KMIA)
Route: UCA UA301 URSUS FLIPR6


Current Weather Information
MROC 201000Z 08006KT CAVOK 20/16 A2999 NOSIG
KMIA 200953Z 34007KT 10SM SCT006 BKN040 BKN080 OVC150 18/18 A2995 RMK AO2 RAB10E22 SLP143 P0000 T01780178